SHMÚ vydal meteorologické výstrahy na Búrky Zobraziť výstrahy

TAF

Letisková predpoveď TAF

Informácie o správe TAF

24.07.2017 - 05:00 UTC

TAF LZIB 240500Z 2406/2506 34005KT CAVOK
    TEMPO 2407/2419 05010KT 9999 -SHRA SCT030 FEW040CB
    TEMPO 2411/2418 30015G25KT 4000 TSRA BKN025 SCT030CB
    BECMG 2418/2420 30015KT=
TAF LZKZ 240500Z 2406/2506 01007KT 9999 FEW045 SCT080
    BECMG 2410/2412 09006KT FEW040CB SCT060
    TEMPO 2412/2504 4000 TSRA BKN025 SCT030CB=
TAF LZTT 240500Z 2406/2506 29007KT 9999 FEW045 BKN070
    PROB40 TEMPO 2406/2407 10004KT 2500 BCFG SCT002 SCT070
    TEMPO 2412/2502 11010KT 4000 TSRA SCT017 SCT030CB=

24.07.2017 - 05:00 UTC

TAF LZSL 240500Z 2406/2415 VRB02KT CAVOK
    BECMG 2407/2409 14005KT 9999 SCT040
    BECMG 2411/2413 RA BKN033 OVC060=
TAF LZPP 240500Z 2406/2415 03008KT CAVOK
    BECMG 2410/2412 9999
    TEMPO 2412/2415 3000 TSRA SCT040CB BKN050=
TAF LZZI 240500Z 2406/2415 06005KT 9999 SCT040
    PROB30 2406/2407 2500 BCFG BKN003
    BECMG 2411/2413 BKN033
    TEMPO 2413/2415 3000 TSRA SCT033CB BKN050=

24.07.2017 - 02:00 UTC

TAF LZSL 240200Z 2403/2412 VRB02KT CAVOK
    PROB40 TEMPO 2403/2405 2200 MIFG SCT005=
TAF LZZI 240200Z 2403/2412 VRB02KT 9999 FEW045 SCT060
    TEMPO 2403/2406 2500 BCFG SCT005
    PROB30 TEMPO 2403/2405 0800 FG BKN002=

skok na menu ↑


skok na začiatok stránky ↑